sensor_id;sensor_type;location;lat;lon;timestamp;pressure;altitude;pressure_sealevel;temperature;humidity
52319;BME280;38258;51.148;14.068;2022-08-21T00:02:03;98255.97;;;16.32;100.00
52319;BME280;38258;51.148;14.068;2022-08-21T00:04:31;98247.63;;;16.24;100.00
52319;BME280;38258;51.148;14.068;2022-08-21T00:06:58;98249.31;;;16.25;100.00
52319;BME280;38258;51.148;14.068;2022-08-21T00:09:26;98247.03;;;16.35;100.00
52319;BME280;38258;51.148;14.068;2022-08-21T00:11:53;98242.44;;;16.22;100.00
52319;BME280;38258;51.148;14.068;2022-08-21T00:14:20;98248.38;;;16.26;100.00
52319;BME280;38258;51.148;14.068;2022-08-21T00:16:46;98251.78;;;16.28;100.00
52319;BME280;38258;51.148;14.068;2022-08-21T00:19:13;98238.16;;;16.20;100.00
52319;BME280;38258;51.148;14.068;2022-08-21T00:21:40;98245.22;;;16.19;100.00
52319;BME280;38258;51.148;14.068;2022-08-21T00:24:07;98256.47;;;16.23;100.00
52319;BME280;38258;51.148;14.068;2022-08-21T00:26:36;98240.81;;;16.20;100.00
52319;BME280;38258;51.148;14.068;2022-08-21T00:29:03;98254.84;;;16.20;100.00
52319;BME280;38258;51.148;14.068;2022-08-21T00:31:30;98254.44;;;16.28;100.00
52319;BME280;38258;51.148;14.068;2022-08-21T00:33:57;98256.16;;;16.29;100.00
52319;BME280;38258;51.148;14.068;2022-08-21T00:36:24;98250.94;;;16.28;100.00
52319;BME280;38258;51.148;14.068;2022-08-21T00:38:50;98249.41;;;16.39;100.00
52319;BME280;38258;51.148;14.068;2022-08-21T00:41:17;98252.59;;;16.30;100.00
52319;BME280;38258;51.148;14.068;2022-08-21T00:43:45;98250.88;;;16.29;100.00
52319;BME280;38258;51.148;14.068;2022-08-21T00:46:12;98249.16;;;16.28;100.00
52319;BME280;38258;51.148;14.068;2022-08-21T00:48:39;98250.19;;;16.25;100.00
52319;BME280;38258;51.148;14.068;2022-08-21T00:51:09;98250.47;;;16.37;100.00
52319;BME280;38258;51.148;14.068;2022-08-21T00:53:39;98250.47;;;16.37;100.00
52319;BME280;38258;51.148;14.068;2022-08-21T00:56:09;98249.41;;;16.39;100.00
52319;BME280;38258;51.148;14.068;2022-08-21T00:58:48;98247.31;;;16.30;100.00
52319;BME280;38258;51.148;14.068;2022-08-21T01:01:15;98248.25;;;16.29;100.00
52319;BME280;38258;51.148;14.068;2022-08-21T01:03:42;98254.09;;;16.34;100.00
52319;BME280;38258;51.148;14.068;2022-08-21T01:06:09;98244.25;;;16.38;100.00
52319;BME280;38258;51.148;14.068;2022-08-21T01:08:36;98250.59;;;16.34;100.00
52319;BME280;38258;51.148;14.068;2022-08-21T01:11:03;98250.72;;;16.32;100.00
52319;BME280;38258;51.148;14.068;2022-08-21T01:13:32;98252.31;;;16.35;100.00
52319;BME280;38258;51.148;14.068;2022-08-21T01:16:03;98251.53;;;16.33;100.00
52319;BME280;38258;51.148;14.068;2022-08-21T01:18:31;98248.66;;;16.37;100.00
52319;BME280;38258;51.148;14.068;2022-08-21T01:21:08;98247.31;;;16.30;100.00
52319;BME280;38258;51.148;14.068;2022-08-21T01:23:36;98247.44;;;16.27;100.00
52319;BME280;38258;51.148;14.068;2022-08-21T01:26:05;98252.72;;;16.27;100.00
52319;BME280;38258;51.148;14.068;2022-08-21T01:28:46;98247.78;;;16.21;100.00
52319;BME280;38258;51.148;14.068;2022-08-21T01:31:17;98245.31;;;16.18;100.00
52319;BME280;38258;51.148;14.068;2022-08-21T01:33:46;98250.66;;;16.16;100.00
52319;BME280;38258;51.148;14.068;2022-08-21T01:36:14;98239.53;;;16.11;100.00
52319;BME280;38258;51.148;14.068;2022-08-21T01:38:41;98243.16;;;16.08;100.00
52319;BME280;38258;51.148;14.068;2022-08-21T01:41:08;98245.72;;;16.10;100.00
52319;BME280;38258;51.148;14.068;2022-08-21T01:43:35;98251.06;;;16.08;100.00
52319;BME280;38258;51.148;14.068;2022-08-21T01:46:02;98252.00;;;16.07;100.00
52319;BME280;38258;51.148;14.068;2022-08-21T01:48:29;98253.13;;;16.03;100.00
52319;BME280;38258;51.148;14.068;2022-08-21T01:50:56;98255.66;;;16.05;100.00
52319;BME280;38258;51.148;14.068;2022-08-21T01:53:24;98251.41;;;16.02;100.00
52319;BME280;38258;51.148;14.068;2022-08-21T01:55:51;98247.16;;;16.00;100.00
52319;BME280;38258;51.148;14.068;2022-08-21T01:58:18;98249.72;;;16.01;100.00
52319;BME280;38258;51.148;14.068;2022-08-21T02:00:45;98254.84;;;15.87;100.00
52319;BME280;38258;51.148;14.068;2022-08-21T02:03:19;98253.13;;;15.86;100.00
52319;BME280;38258;51.148;14.068;2022-08-21T02:05:45;98245.69;;;15.76;100.00
52319;BME280;38258;51.148;14.068;2022-08-21T02:08:12;98242.19;;;15.76;100.00
52319;BME280;38258;51.148;14.068;2022-08-21T02:10:40;98248.50;;;15.73;100.00
52319;BME280;38258;51.148;14.068;2022-08-21T02:13:08;98239.28;;;15.64;100.00
52319;BME280;38258;51.148;14.068;2022-08-21T02:15:34;98241.50;;;15.54;100.00
52319;BME280;38258;51.148;14.068;2022-08-21T02:18:04;98249.97;;;15.61;100.00
52319;BME280;38258;51.148;14.068;2022-08-21T02:20:35;98253.63;;;15.59;100.00
52319;BME280;38258;51.148;14.068;2022-08-21T02:23:02;98248.66;;;15.52;100.00
52319;BME280;38258;51.148;14.068;2022-08-21T02:25:33;98251.84;;;15.41;100.00
52319;BME280;38258;51.148;14.068;2022-08-21T02:28:06;98250.34;;;15.36;100.00
52319;BME280;38258;51.148;14.068;2022-08-21T02:30:36;98244.47;;;15.31;100.00
52319;BME280;38258;51.148;14.068;2022-08-21T02:33:06;98238.50;;;15.27;100.00
52319;BME280;38258;51.148;14.068;2022-08-21T02:35:33;98235.31;;;15.20;100.00
52319;BME280;38258;51.148;14.068;2022-08-21T02:38:03;98236.56;;;15.31;100.00
52319;BME280;38258;51.148;14.068;2022-08-21T02:40:33;98233.72;;;15.35;100.00
52319;BME280;38258;51.148;14.068;2022-08-21T02:43:03;98232.91;;;15.33;100.00
52319;BME280;38258;51.148;14.068;2022-08-21T02:45:31;98227.50;;;15.36;100.00
52319;BME280;38258;51.148;14.068;2022-08-21T02:47:59;98226.81;;;15.33;100.00
52319;BME280;38258;51.148;14.068;2022-08-21T02:50:30;98224.00;;;15.36;100.00
52319;BME280;38258;51.148;14.068;2022-08-21T02:52:57;98227.63;;;15.33;100.00
52319;BME280;38258;51.148;14.068;2022-08-21T02:55:26;98224.47;;;15.26;100.00
52319;BME280;38258;51.148;14.068;2022-08-21T02:57:54;98224.78;;;15.20;100.00
52319;BME280;38258;51.148;14.068;2022-08-21T03:00:25;98224.78;;;15.20;100.00
52319;BME280;38258;51.148;14.068;2022-08-21T03:02:53;98220.81;;;15.11;100.00
52319;BME280;38258;51.148;14.068;2022-08-21T03:05:21;98227.25;;;15.06;100.00
52319;BME280;38258;51.148;14.068;2022-08-21T03:07:48;98230.59;;;15.09;100.00
52319;BME280;38258;51.148;14.068;2022-08-21T03:10:15;98221.53;;;15.15;100.00
52319;BME280;38258;51.148;14.068;2022-08-21T03:12:42;98228.41;;;15.18;100.00
52319;BME280;38258;51.148;14.068;2022-08-21T03:15:12;98223.69;;;15.07;100.00
52319;BME280;38258;51.148;14.068;2022-08-21T03:17:41;98234.94;;;15.10;100.00
52319;BME280;38258;51.148;14.068;2022-08-21T03:20:10;98242.44;;;15.18;100.00
52319;BME280;38258;51.148;14.068;2022-08-21T03:22:38;98240.59;;;15.20;100.00
52319;BME280;38258;51.148;14.068;2022-08-21T03:25:06;98238.94;;;15.18;100.00
52319;BME280;38258;51.148;14.068;2022-08-21T03:27:34;98238.13;;;15.35;100.00
52319;BME280;38258;51.148;14.068;2022-08-21T03:30:03;98239.88;;;15.17;100.00
52319;BME280;38258;51.148;14.068;2022-08-21T03:32:31;98240.75;;;15.17;100.00
52319;BME280;38258;51.148;14.068;2022-08-21T03:34:59;98239.66;;;15.21;100.00
52319;BME280;38258;51.148;14.068;2022-08-21T03:37:26;98243.44;;;15.16;100.00
52319;BME280;38258;51.148;14.068;2022-08-21T03:39:53;98245.53;;;15.09;100.00
52319;BME280;38258;51.148;14.068;2022-08-21T03:42:21;98245.53;;;15.09;100.00
52319;BME280;38258;51.148;14.068;2022-08-21T03:44:48;98243.06;;;15.06;100.00
52319;BME280;38258;51.148;14.068;2022-08-21T03:47:14;98248.38;;;15.04;100.00
52319;BME280;38258;51.148;14.068;2022-08-21T03:49:41;98247.22;;;15.10;100.00
52319;BME280;38258;51.148;14.068;2022-08-21T03:52:09;98250.19;;;15.21;100.00
52319;BME280;38258;51.148;14.068;2022-08-21T03:54:36;98260.78;;;15.20;100.00
52319;BME280;38258;51.148;14.068;2022-08-21T03:57:04;98258.41;;;15.15;100.00
52319;BME280;38258;51.148;14.068;2022-08-21T03:59:31;98260.25;;;15.13;100.00
52319;BME280;38258;51.148;14.068;2022-08-21T04:02:01;98266.94;;;15.20;100.00
52319;BME280;38258;51.148;14.068;2022-08-21T04:04:29;98273.91;;;15.39;100.00
52319;BME280;38258;51.148;14.068;2022-08-21T04:06:57;98261.91;;;15.33;100.00
52319;BME280;38258;51.148;14.068;2022-08-21T04:09:26;98265.25;;;15.37;100.00
52319;BME280;38258;51.148;14.068;2022-08-21T04:11:53;98266.38;;;15.31;100.00
52319;BME280;38258;51.148;14.068;2022-08-21T04:14:20;98267.97;;;15.35;100.00
52319;BME280;38258;51.148;14.068;2022-08-21T04:16:47;98266.31;;;15.33;100.00
52319;BME280;38258;51.148;14.068;2022-08-21T04:19:14;98259.66;;;15.25;100.00
52319;BME280;38258;51.148;14.068;2022-08-21T04:21:42;98272.16;;;15.39;100.00
52319;BME280;38258;51.148;14.068;2022-08-21T04:24:10;98264.25;;;15.39;100.00
52319;BME280;38258;51.148;14.068;2022-08-21T04:26:38;98260.91;;;15.36;100.00
52319;BME280;38258;51.148;14.068;2022-08-21T04:29:05;98266.50;;;15.47;100.00
52319;BME280;38258;51.148;14.068;2022-08-21T04:31:33;98270.81;;;15.48;100.00
52319;BME280;38258;51.148;14.068;2022-08-21T04:34:00;98256.19;;;15.43;100.00
52319;BME280;38258;51.148;14.068;2022-08-21T04:36:27;98271.38;;;15.55;100.00
52319;BME280;38258;51.148;14.068;2022-08-21T04:38:54;98269.84;;;15.51;100.00
52319;BME280;38258;51.148;14.068;2022-08-21T04:41:21;98266.94;;;15.55;100.00
52319;BME280;38258;51.148;14.068;2022-08-21T04:43:49;98276.56;;;15.57;100.00
52319;BME280;38258;51.148;14.068;2022-08-21T04:46:16;98269.72;;;15.52;100.00
52319;BME280;38258;51.148;14.068;2022-08-21T04:48:44;98266.38;;;15.49;100.00
52319;BME280;38258;51.148;14.068;2022-08-21T04:51:13;98268.34;;;15.45;100.00
52319;BME280;38258;51.148;14.068;2022-08-21T04:53:45;98263.75;;;15.49;100.00
52319;BME280;38258;51.148;14.068;2022-08-21T04:56:15;98268.13;;;15.50;100.00
52319;BME280;38258;51.148;14.068;2022-08-21T04:58:45;98267.03;;;15.54;100.00
52319;BME280;38258;51.148;14.068;2022-08-21T05:01:17;98274.78;;;15.57;100.00
52319;BME280;38258;51.148;14.068;2022-08-21T05:03:46;98273.44;;;15.66;100.00
52319;BME280;38258;51.148;14.068;2022-08-21T05:06:16;98277.72;;;15.68;100.00
52319;BME280;38258;51.148;14.068;2022-08-21T05:08:44;98284.69;;;15.69;100.00
52319;BME280;38258;51.148;14.068;2022-08-21T05:11:13;98277.56;;;15.72;100.00
52319;BME280;38258;51.148;14.068;2022-08-21T05:13:39;98276.34;;;15.79;100.00
52319;BME280;38258;51.148;14.068;2022-08-21T05:16:07;98280.75;;;15.78;100.00
52319;BME280;38258;51.148;14.068;2022-08-21T05:18:36;98277.16;;;15.97;100.00
52319;BME280;38258;51.148;14.068;2022-08-21T05:21:03;98278.19;;;15.94;100.00
52319;BME280;38258;51.148;14.068;2022-08-21T05:23:30;98280.84;;;15.94;100.00
52319;BME280;38258;51.148;14.068;2022-08-21T05:25:57;98284.25;;;15.96;100.00
52319;BME280;38258;51.148;14.068;2022-08-21T05:28:23;98290.34;;;15.97;100.00
52319;BME280;38258;51.148;14.068;2022-08-21T05:30:51;98287.25;;;16.06;100.00
52319;BME280;38258;51.148;14.068;2022-08-21T05:33:18;98284.44;;;16.09;100.00
52319;BME280;38258;51.148;14.068;2022-08-21T05:35:49;98293.00;;;16.15;100.00
52319;BME280;38258;51.148;14.068;2022-08-21T05:38:16;98290.06;;;16.19;100.00
52319;BME280;38258;51.148;14.068;2022-08-21T05:40:43;98291.72;;;16.22;100.00
52319;BME280;38258;51.148;14.068;2022-08-21T05:43:10;98287.09;;;16.09;100.00
52319;BME280;38258;51.148;14.068;2022-08-21T05:45:37;98285.38;;;16.08;100.00
52319;BME280;38258;51.148;14.068;2022-08-21T05:48:07;98291.66;;;16.06;100.00
52319;BME280;38258;51.148;14.068;2022-08-21T05:50:35;98285.78;;;16.01;100.00
52319;BME280;38258;51.148;14.068;2022-08-21T05:53:04;98296.47;;;16.15;100.00
52319;BME280;38258;51.148;14.068;2022-08-21T05:55:31;98300.81;;;16.16;100.00
52319;BME280;38258;51.148;14.068;2022-08-21T05:57:57;98296.47;;;16.15;100.00
52319;BME280;38258;51.148;14.068;2022-08-21T06:00:25;98301.75;;;16.15;100.00
52319;BME280;38258;51.148;14.068;2022-08-21T06:02:57;98307.84;;;16.33;100.00
52319;BME280;38258;51.148;14.068;2022-08-21T06:05:25;98310.88;;;16.25;100.00
52319;BME280;38258;51.148;14.068;2022-08-21T06:07:52;98307.63;;;16.20;100.00
52319;BME280;38258;51.148;14.068;2022-08-21T06:10:20;98299.56;;;16.06;100.00
52319;BME280;38258;51.148;14.068;2022-08-21T06:12:52;98310.75;;;16.11;100.00
52319;BME280;38258;51.148;14.068;2022-08-21T06:15:19;98306.00;;;16.18;100.00
52319;BME280;38258;51.148;14.068;2022-08-21T06:17:46;98306.47;;;16.08;100.00
52319;BME280;38258;51.148;14.068;2022-08-21T06:20:13;98308.03;;;16.13;100.00
52319;BME280;38258;51.148;14.068;2022-08-21T06:22:40;98307.53;;;16.22;100.00
52319;BME280;38258;51.148;14.068;2022-08-21T06:25:07;98286.91;;;16.46;100.00
52319;BME280;38258;51.148;14.068;2022-08-21T06:27:36;98302.38;;;16.36;100.00
52319;BME280;38258;51.148;14.068;2022-08-21T06:30:03;98298.00;;;16.69;100.00
52319;BME280;38258;51.148;14.068;2022-08-21T06:32:30;98290.50;;;16.77;100.00
52319;BME280;38258;51.148;14.068;2022-08-21T06:34:57;98292.03;;;16.81;100.00
52319;BME280;38258;51.148;14.068;2022-08-21T06:37:24;98292.09;;;16.64;100.00
52319;BME280;38258;51.148;14.068;2022-08-21T06:39:51;98294.69;;;16.81;100.00
52319;BME280;38258;51.148;14.068;2022-08-21T06:42:17;98297.75;;;16.90;100.00
52319;BME280;38258;51.148;14.068;2022-08-21T06:44:47;98297.81;;;16.72;100.00
52319;BME280;38258;51.148;14.068;2022-08-21T06:47:14;98305.91;;;16.85;100.00
52319;BME280;38258;51.148;14.068;2022-08-21T06:49:41;98309.34;;;17.03;100.00
52319;BME280;38258;51.148;14.068;2022-08-21T06:52:09;98299.78;;;16.85;100.00
52319;BME280;38258;51.148;14.068;2022-08-21T06:54:36;98306.09;;;16.98;100.00
52319;BME280;38258;51.148;14.068;2022-08-21T06:57:03;98309.00;;;16.93;100.00
52319;BME280;38258;51.148;14.068;2022-08-21T06:59:30;98302.00;;;16.76;100.00
52319;BME280;38258;51.148;14.068;2022-08-21T07:01:59;98311.47;;;16.80;100.00
52319;BME280;38258;51.148;14.068;2022-08-21T07:04:26;98314.03;;;16.98;100.00
52319;BME280;38258;51.148;14.068;2022-08-21T07:06:52;98319.91;;;16.71;100.00
52319;BME280;38258;51.148;14.068;2022-08-21T07:09:19;98313.50;;;16.75;100.00
52319;BME280;38258;51.148;14.068;2022-08-21T07:11:48;98301.16;;;16.76;100.00
52319;BME280;38258;51.148;14.068;2022-08-21T07:14:16;98301.06;;;16.77;100.00
52319;BME280;38258;51.148;14.068;2022-08-21T07:16:43;98295.19;;;16.72;100.00
52319;BME280;38258;51.148;14.068;2022-08-21T07:19:10;98291.28;;;16.79;100.00
52319;BME280;38258;51.148;14.068;2022-08-21T07:21:37;98300.28;;;16.75;100.00
52319;BME280;38258;51.148;14.068;2022-08-21T07:24:04;98292.81;;;17.00;100.00
52319;BME280;38258;51.148;14.068;2022-08-21T07:26:30;98290.00;;;16.87;100.00
52319;BME280;38258;51.148;14.068;2022-08-21T07:28:57;98301.84;;;16.79;100.00
52319;BME280;38258;51.148;14.068;2022-08-21T07:31:25;98296.91;;;17.05;100.00
52319;BME280;38258;51.148;14.068;2022-08-21T07:33:52;98298.16;;;17.30;100.00
52319;BME280;38258;51.148;14.068;2022-08-21T07:36:20;98305.88;;;17.03;100.00
52319;BME280;38258;51.148;14.068;2022-08-21T07:38:46;98298.72;;;17.05;100.00
52319;BME280;38258;51.148;14.068;2022-08-21T07:41:15;98314.28;;;16.93;100.00
52319;BME280;38258;51.148;14.068;2022-08-21T07:43:42;98322.75;;;17.00;100.00
52319;BME280;38258;51.148;14.068;2022-08-21T07:46:09;98323.06;;;16.94;100.00
52319;BME280;38258;51.148;14.068;2022-08-21T07:48:35;98324.91;;;16.92;100.00
52319;BME280;38258;51.148;14.068;2022-08-21T07:51:05;98297.84;;;16.88;100.00
52319;BME280;38258;51.148;14.068;2022-08-21T07:53:34;98305.75;;;16.88;100.00
52319;BME280;38258;51.148;14.068;2022-08-21T07:56:01;98324.69;;;17.13;100.00
52319;BME280;38258;51.148;14.068;2022-08-21T07:58:28;98326.66;;;17.25;100.00
52319;BME280;38258;51.148;14.068;2022-08-21T08:00:55;98326.09;;;17.34;100.00
52319;BME280;38258;51.148;14.068;2022-08-21T08:03:22;98328.19;;;17.13;100.00
52319;BME280;38258;51.148;14.068;2022-08-21T08:05:49;98328.75;;;17.34;100.00
52319;BME280;38258;51.148;14.068;2022-08-21T08:08:16;98333.97;;;17.36;100.00
52319;BME280;38258;51.148;14.068;2022-08-21T08:10:44;98308.75;;;17.14;100.00
52319;BME280;38258;51.148;14.068;2022-08-21T08:13:11;98332.31;;;17.03;100.00
52319;BME280;38258;51.148;14.068;2022-08-21T08:15:37;98323.31;;;17.37;100.00
52319;BME280;38258;51.148;14.068;2022-08-21T08:18:04;98276.06;;;17.01;100.00
52319;BME280;38258;51.148;14.068;2022-08-21T08:20:30;98325.22;;;17.19;100.00
52319;BME280;38258;51.148;14.068;2022-08-21T08:22:58;98331.25;;;17.37;100.00
52319;BME280;38258;51.148;14.068;2022-08-21T08:25:26;98345.78;;;17.61;100.00
52319;BME280;38258;51.148;14.068;2022-08-21T08:27:54;98341.28;;;17.47;100.00
52319;BME280;38258;51.148;14.068;2022-08-21T08:30:21;98332.00;;;17.40;100.00
52319;BME280;38258;51.148;14.068;2022-08-21T08:32:49;98332.13;;;17.52;100.00
52319;BME280;38258;51.148;14.068;2022-08-21T08:35:16;98293.72;;;17.61;100.00
52319;BME280;38258;51.148;14.068;2022-08-21T08:37:43;98320.69;;;18.13;100.00
52319;BME280;38258;51.148;14.068;2022-08-21T08:40:12;98331.38;;;18.26;100.00
52319;BME280;38258;51.148;14.068;2022-08-21T08:42:39;98341.69;;;18.31;100.00
52319;BME280;38258;51.148;14.068;2022-08-21T08:45:10;98354.56;;;18.37;100.00
52319;BME280;38258;51.148;14.068;2022-08-21T08:47:38;98346.00;;;18.03;100.00
52319;BME280;38258;51.148;14.068;2022-08-21T08:50:08;98349.41;;;18.05;100.00
52319;BME280;38258;51.148;14.068;2022-08-21T08:52:42;98351.63;;;17.66;100.00
52319;BME280;38258;51.148;14.068;2022-08-21T08:55:12;98350.84;;;17.80;100.00
52319;BME280;38258;51.148;14.068;2022-08-21T08:57:44;98354.75;;;17.89;100.00
52319;BME280;38258;51.148;14.068;2022-08-21T09:00:16;98341.59;;;18.18;100.00
52319;BME280;38258;51.148;14.068;2022-08-21T09:02:44;98351.72;;;18.55;100.00
52319;BME280;38258;51.148;14.068;2022-08-21T09:05:24;98348.78;;;18.30;100.00
52319;BME280;38258;51.148;14.068;2022-08-21T09:08:14;98331.75;;;18.63;100.00
52319;BME280;38258;51.148;14.068;2022-08-21T09:10:51;98339.22;;;19.00;100.00
52319;BME280;38258;51.148;14.068;2022-08-21T09:13:32;98351.53;;;19.29;100.00
52319;BME280;38258;51.148;14.068;2022-08-21T09:16:11;98343.72;;;19.13;100.00
52319;BME280;38258;51.148;14.068;2022-08-21T09:18:46;98340.38;;;19.24;100.00
52319;BME280;38258;51.148;14.068;2022-08-21T09:21:26;98336.19;;;18.77;100.00
52319;BME280;38258;51.148;14.068;2022-08-21T09:23:59;98334.41;;;18.63;100.00
52319;BME280;38258;51.148;14.068;2022-08-21T09:26:29;98335.63;;;18.58;100.00
52319;BME280;38258;51.148;14.068;2022-08-21T09:28:59;98331.81;;;18.76;100.00
52319;BME280;38258;51.148;14.068;2022-08-21T09:31:30;98333.66;;;18.76;100.00
52319;BME280;38258;51.148;14.068;2022-08-21T09:33:58;98332.38;;;19.11;100.00
52319;BME280;38258;51.148;14.068;2022-08-21T09:36:32;98326.06;;;18.70;100.00
52319;BME280;38258;51.148;14.068;2022-08-21T09:39:00;98328.59;;;18.86;100.00
52319;BME280;38258;51.148;14.068;2022-08-21T09:41:29;98329.44;;;19.15;100.00
52319;BME280;38258;51.148;14.068;2022-08-21T09:43:57;98330.72;;;19.23;100.00
52319;BME280;38258;51.148;14.068;2022-08-21T09:46:25;98332.34;;;19.25;100.00
52319;BME280;38258;51.148;14.068;2022-08-21T09:48:55;98333.50;;;19.06;100.00
52319;BME280;38258;51.148;14.068;2022-08-21T09:51:24;98321.31;;;19.04;100.00
52319;BME280;38258;51.148;14.068;2022-08-21T09:53:53;98322.69;;;19.24;100.00
52319;BME280;38258;51.148;14.068;2022-08-21T09:56:27;98324.75;;;19.19;100.00
52319;BME280;38258;51.148;14.068;2022-08-21T09:59:18;98321.41;;;19.57;100.00
52319;BME280;38258;51.148;14.068;2022-08-21T10:01:48;98322.94;;;19.47;97.00
52319;BME280;38258;51.148;14.068;2022-08-21T10:04:24;98322.94;;;19.74;99.12
52319;BME280;38258;51.148;14.068;2022-08-21T10:06:51;98329.06;;;19.34;83.21
52319;BME280;38258;51.148;14.068;2022-08-21T10:09:19;98329.31;;;19.17;84.63
52319;BME280;38258;51.148;14.068;2022-08-21T10:11:52;98324.69;;;19.61;87.57
52319;BME280;38258;51.148;14.068;2022-08-21T10:14:34;98306.72;;;19.52;84.36
52319;BME280;38258;51.148;14.068;2022-08-21T10:17:07;98324.56;;;19.62;84.19
52319;BME280;38258;51.148;14.068;2022-08-21T10:19:47;98319.41;;;19.74;87.62
52319;BME280;38258;51.148;14.068;2022-08-21T10:22:28;98318.09;;;20.07;93.11
52319;BME280;38258;51.148;14.068;2022-08-21T10:25:02;98323.59;;;19.50;93.23
52319;BME280;38258;51.148;14.068;2022-08-21T10:27:38;98321.53;;;19.69;95.88
52319;BME280;38258;51.148;14.068;2022-08-21T10:30:09;98324.94;;;19.84;89.21
52319;BME280;38258;51.148;14.068;2022-08-21T10:32:47;98321.88;;;18.94;88.56
52319;BME280;38258;51.148;14.068;2022-08-21T10:35:23;98326.69;;;19.57;90.06
52319;BME280;38258;51.148;14.068;2022-08-21T10:38:41;98321.25;;;19.86;90.66
52319;BME280;38258;51.148;14.068;2022-08-21T10:41:26;98321.28;;;19.99;83.93
52319;BME280;38258;51.148;14.068;2022-08-21T10:44:02;98318.75;;;19.70;83.96
52319;BME280;38258;51.148;14.068;2022-08-21T10:46:43;98324.72;;;19.74;84.79
52319;BME280;38258;51.148;14.068;2022-08-21T10:49:20;98293.00;;;19.04;85.10
52319;BME280;38258;51.148;14.068;2022-08-21T10:51:55;98324.72;;;19.74;85.53
52319;BME280;38258;51.148;14.068;2022-08-21T10:54:34;98310.34;;;19.50;82.39
52319;BME280;38258;51.148;14.068;2022-08-21T10:57:11;98322.13;;;19.59;83.43
52319;BME280;38258;51.148;14.068;2022-08-21T10:59:52;98322.84;;;19.89;84.42
52319;BME280;38258;51.148;14.068;2022-08-21T11:02:26;98325.72;;;20.51;80.40
52319;BME280;38258;51.148;14.068;2022-08-21T11:04:57;98334.44;;;20.66;73.53
52319;BME280;38258;51.148;14.068;2022-08-21T11:07:31;98313.63;;;20.46;72.49
52319;BME280;38258;51.148;14.068;2022-08-21T11:10:03;98323.59;;;20.56;72.59
52319;BME280;38258;51.148;14.068;2022-08-21T11:12:34;98329.91;;;20.29;69.06
52319;BME280;38258;51.148;14.068;2022-08-21T11:15:22;98325.53;;;20.15;70.72
52319;BME280;38258;51.148;14.068;2022-08-21T11:17:54;98301.19;;;20.08;67.06
52319;BME280;38258;51.148;14.068;2022-08-21T11:20:28;98305.56;;;19.43;67.33
52319;BME280;38258;51.148;14.068;2022-08-21T11:23:07;98332.84;;;19.58;71.94
52319;BME280;38258;51.148;14.068;2022-08-21T11:25:40;98336.38;;;20.25;71.96
52319;BME280;38258;51.148;14.068;2022-08-21T11:28:13;98332.88;;;20.24;70.99
52319;BME280;38258;51.148;14.068;2022-08-21T11:30:51;98328.41;;;20.12;69.36
52319;BME280;38258;51.148;14.068;2022-08-21T11:33:31;98336.91;;;20.56;66.85
52319;BME280;38258;51.148;14.068;2022-08-21T11:36:08;98290.13;;;19.75;68.03
52319;BME280;38258;51.148;14.068;2022-08-21T11:38:42;98332.53;;;19.49;66.21
52319;BME280;38258;51.148;14.068;2022-08-21T11:41:19;98295.25;;;19.11;66.36
52319;BME280;38258;51.148;14.068;2022-08-21T11:43:53;98327.00;;;19.53;63.37
52319;BME280;38258;51.148;14.068;2022-08-21T11:46:25;98326.50;;;19.60;66.98
52319;BME280;38258;51.148;14.068;2022-08-21T11:49:02;98320.56;;;20.10;61.54
52319;BME280;38258;51.148;14.068;2022-08-21T11:51:36;98312.34;;;20.00;62.75
52319;BME280;38258;51.148;14.068;2022-08-21T11:54:13;98323.72;;;20.28;62.13
52319;BME280;38258;51.148;14.068;2022-08-21T11:56:47;98289.66;;;20.72;62.85
52319;BME280;38258;51.148;14.068;2022-08-21T11:59:18;98321.28;;;20.51;65.14
52319;BME280;38258;51.148;14.068;2022-08-21T12:01:48;98323.22;;;21.24;66.75
52319;BME280;38258;51.148;14.068;2022-08-21T12:04:22;98322.34;;;20.61;63.93
52319;BME280;38258;51.148;14.068;2022-08-21T12:06:51;98322.47;;;20.47;62.01
52319;BME280;38258;51.148;14.068;2022-08-21T12:09:34;98318.94;;;21.34;58.87
52319;BME280;38258;51.148;14.068;2022-08-21T12:12:05;98313.50;;;21.11;58.18
52319;BME280;38258;51.148;14.068;2022-08-21T12:14:41;98325.16;;;20.71;57.03
52319;BME280;38258;51.148;14.068;2022-08-21T12:17:16;98321.94;;;20.92;58.48
52319;BME280;38258;51.148;14.068;2022-08-21T12:19:44;98320.44;;;20.12;58.85
52319;BME280;38258;51.148;14.068;2022-08-21T12:22:12;98318.22;;;20.18;59.59
52319;BME280;38258;51.148;14.068;2022-08-21T12:24:43;98313.09;;;20.41;60.44
52319;BME280;38258;51.148;14.068;2022-08-21T12:27:21;98319.06;;;20.45;59.36
52319;BME280;38258;51.148;14.068;2022-08-21T12:29:53;98321.75;;;21.19;60.88
52319;BME280;38258;51.148;14.068;2022-08-21T12:32:26;98293.94;;;20.62;59.07
52319;BME280;38258;51.148;14.068;2022-08-21T12:34:55;98315.88;;;21.27;60.73
52319;BME280;38258;51.148;14.068;2022-08-21T12:37:30;98327.31;;;20.66;59.73
52319;BME280;38258;51.148;14.068;2022-08-21T12:40:03;98311.34;;;20.79;59.49
52319;BME280;38258;51.148;14.068;2022-08-21T12:42:37;98308.78;;;21.39;59.71
52319;BME280;38258;51.148;14.068;2022-08-21T12:45:14;98306.81;;;21.54;53.94
52319;BME280;38258;51.148;14.068;2022-08-21T12:47:46;98308.09;;;21.73;54.03
52319;BME280;38258;51.148;14.068;2022-08-21T12:50:19;98306.34;;;21.96;52.06
52319;BME280;38258;51.148;14.068;2022-08-21T12:52:53;98312.69;;;21.71;53.77
52319;BME280;38258;51.148;14.068;2022-08-21T12:55:28;98311.22;;;22.02;54.00
52319;BME280;38258;51.148;14.068;2022-08-21T12:57:55;98308.28;;;21.34;52.63